createdAt,value
2019-05-10T00:02:09.242Z,9.96
2019-05-10T00:05:01.327Z,9.94
2019-05-10T00:07:53.411Z,9.92
2019-05-10T00:10:26.513Z,9.93
2019-05-10T00:13:10.970Z,9.91
2019-05-10T00:15:44.973Z,9.97
2019-05-10T00:18:19.110Z,10.00
2019-05-10T00:20:53.324Z,10.01
2019-05-10T00:23:27.241Z,10.01
2019-05-10T00:26:01.309Z,10.03
2019-05-10T00:28:34.441Z,10.04
2019-05-10T00:31:08.542Z,10.06
2019-05-10T00:33:41.774Z,10.05
2019-05-10T00:36:15.860Z,10.08
2019-05-10T00:38:48.973Z,10.07
2019-05-10T00:41:22.925Z,10.07
2019-05-10T00:43:56.968Z,10.03
2019-05-10T00:46:30.219Z,10.02
2019-05-10T00:49:04.333Z,10.00
2019-05-10T00:51:37.705Z,9.99
2019-05-10T00:54:11.729Z,9.99
2019-05-10T00:56:45.762Z,9.95
2019-05-10T00:59:20.021Z,9.96
2019-05-10T01:01:53.123Z,9.95
2019-05-10T01:04:27.165Z,9.98
2019-05-10T01:07:00.595Z,9.94
2019-05-10T01:09:34.603Z,9.93
2019-05-10T01:12:08.639Z,9.89
2019-05-10T01:14:41.876Z,9.88
2019-05-10T01:17:15.831Z,9.88
2019-05-10T01:19:49.851Z,9.85
2019-05-10T01:22:23.872Z,9.85
2019-05-10T01:24:57.189Z,9.82
2019-05-10T01:27:31.269Z,9.80
2019-05-10T01:30:06.028Z,9.78
2019-05-10T01:32:39.266Z,9.76
2019-05-10T01:35:13.393Z,9.75
2019-05-10T01:37:47.664Z,9.73
2019-05-10T01:40:20.868Z,9.71
2019-05-10T01:42:54.920Z,9.71
2019-05-10T01:45:28.163Z,9.70
2019-05-10T01:48:02.470Z,9.71
2019-05-10T01:50:36.471Z,9.70
2019-05-10T01:53:09.662Z,9.73
2019-05-10T01:55:52.199Z,9.73
2019-05-10T01:58:19.334Z,9.74
2019-05-10T02:00:52.661Z,9.75
2019-05-10T02:03:26.604Z,9.76
2019-05-10T02:06:00.646Z,9.76
2019-05-10T02:08:34.069Z,9.76
2019-05-10T02:11:08.083Z,9.80
2019-05-10T02:13:41.581Z,9.80
2019-05-10T02:16:15.516Z,9.84
2019-05-10T02:18:49.576Z,9.86
2019-05-10T02:21:23.024Z,9.88
2019-05-10T02:23:57.084Z,9.89
2019-05-10T02:26:30.207Z,9.90
2019-05-10T02:29:04.473Z,9.91
2019-05-10T02:31:38.505Z,9.91
2019-05-10T02:34:11.753Z,9.90
2019-05-10T02:36:45.793Z,9.91
2019-05-10T02:39:19.048Z,9.92
2019-05-10T02:41:52.932Z,9.92
2019-05-10T02:44:27.073Z,9.94
2019-05-10T02:47:00.275Z,9.96
2019-05-10T02:49:34.364Z,9.99
2019-05-10T02:52:07.675Z,9.99
2019-05-10T02:54:41.859Z,10.01
2019-05-10T02:57:16.122Z,9.99
2019-05-10T02:59:50.552Z,9.99
2019-05-10T03:02:25.353Z,10.03
2019-05-10T03:05:00.899Z,10.02
2019-05-10T03:07:39.439Z,10.01
2019-05-10T03:10:13.771Z,10.02
2019-05-10T03:12:50.595Z,10.05
2019-05-10T03:15:27.364Z,10.07
2019-05-10T03:18:03.411Z,10.10
2019-05-10T03:20:39.161Z,10.12
2019-05-10T03:23:13.302Z,10.09
2019-05-10T03:25:46.640Z,10.07
2019-05-10T03:28:20.732Z,10.03
2019-05-10T03:30:55.155Z,9.98
2019-05-10T03:33:29.288Z,9.94
2019-05-10T03:36:03.363Z,9.94
2019-05-10T03:38:37.909Z,9.96
2019-05-10T03:41:12.209Z,9.96
2019-05-10T03:43:46.432Z,9.96
2019-05-10T03:46:20.381Z,9.97
2019-05-10T03:48:54.541Z,9.98
2019-05-10T03:51:28.625Z,9.95
2019-05-10T03:54:01.777Z,9.95
2019-05-10T03:56:35.780Z,9.97
2019-05-10T03:59:09.670Z,9.97
2019-05-10T04:01:43.602Z,10.00
2019-05-10T04:04:17.589Z,10.00
2019-05-10T04:06:51.625Z,10.02
2019-05-10T04:09:24.852Z,10.02
2019-05-10T04:11:58.648Z,9.99
2019-05-10T04:14:32.570Z,9.97
2019-05-10T04:17:06.412Z,9.96
2019-05-10T04:19:40.435Z,9.98
2019-05-10T04:22:14.390Z,9.99
2019-05-10T04:24:48.414Z,10.04
2019-05-10T04:27:31.418Z,10.06
2019-05-10T04:29:56.999Z,10.05
2019-05-10T04:32:30.828Z,10.09
2019-05-10T04:35:06.667Z,10.15
2019-05-10T04:37:40.547Z,10.20
2019-05-10T04:40:14.590Z,10.24
2019-05-10T04:42:47.734Z,10.27
2019-05-10T04:45:21.810Z,10.31
2019-05-10T04:47:54.891Z,10.31
2019-05-10T04:50:29.000Z,10.35
2019-05-10T04:53:02.837Z,10.38
2019-05-10T04:55:38.578Z,10.41
2019-05-10T04:58:12.609Z,10.39
2019-05-10T05:00:46.492Z,10.36
2019-05-10T05:03:20.332Z,10.37
2019-05-10T05:05:54.220Z,10.43
2019-05-10T05:08:28.023Z,10.46
2019-05-10T05:11:02.696Z,10.44
2019-05-10T05:13:36.651Z,10.41
2019-05-10T05:16:10.870Z,10.39
2019-05-10T05:18:44.731Z,10.44
2019-05-10T05:21:18.674Z,10.44
2019-05-10T05:23:52.663Z,10.46
2019-05-10T05:26:26.651Z,10.44
2019-05-10T05:29:00.453Z,10.40
2019-05-10T05:31:34.307Z,10.36
2019-05-10T05:34:08.303Z,10.37
2019-05-10T05:36:41.567Z,10.38
2019-05-10T05:39:15.459Z,10.43
2019-05-10T05:41:51.755Z,10.45
2019-05-10T05:44:26.279Z,10.44
2019-05-10T05:47:04.387Z,10.53
2019-05-10T05:49:36.356Z,10.53
2019-05-10T05:52:10.375Z,10.51
2019-05-10T05:54:43.633Z,10.45
2019-05-10T05:57:22.108Z,10.44
2019-05-10T05:59:57.558Z,10.41
2019-05-10T06:02:29.579Z,10.45
2019-05-10T06:05:03.659Z,10.49
2019-05-10T06:07:38.013Z,10.50
2019-05-10T06:10:17.311Z,10.56
2019-05-10T06:12:50.505Z,10.58
2019-05-10T06:15:29.244Z,10.61
2019-05-10T06:18:03.382Z,10.65
2019-05-10T06:20:38.104Z,10.68
2019-05-10T06:23:12.258Z,10.66
2019-05-10T06:25:46.188Z,10.69
2019-05-10T06:28:26.998Z,10.73
2019-05-10T06:30:56.176Z,10.73
2019-05-10T06:33:29.576Z,10.75
2019-05-10T06:36:03.598Z,10.73
2019-05-10T06:38:37.781Z,10.66
2019-05-10T06:41:16.724Z,10.70
2019-05-10T06:43:51.055Z,10.70
2019-05-10T06:46:23.581Z,10.76
2019-05-10T06:49:07.326Z,10.79
2019-05-10T06:51:33.389Z,10.76
2019-05-10T06:54:07.381Z,10.76
2019-05-10T06:56:40.719Z,10.76
2019-05-10T06:59:19.290Z,10.80
2019-05-10T07:01:52.128Z,10.80
2019-05-10T07:04:26.376Z,10.89
2019-05-10T07:06:59.604Z,10.96
2019-05-10T07:10:00.562Z,10.99
2019-05-10T07:12:15.514Z,10.98
2019-05-10T07:14:46.512Z,10.93
2019-05-10T07:17:20.945Z,10.90
2019-05-10T07:19:55.385Z,10.91
2019-05-10T07:22:29.455Z,10.90
2019-05-10T07:25:07.530Z,10.88
2019-05-10T07:27:38.695Z,10.89
2019-05-10T07:30:13.130Z,10.83
2019-05-10T07:32:47.359Z,10.84
2019-05-10T07:35:21.477Z,10.91
2019-05-10T07:37:54.977Z,10.98
2019-05-10T07:40:29.233Z,10.98
2019-05-10T07:43:03.477Z,10.99
2019-05-10T07:45:36.864Z,11.04
2019-05-10T07:48:11.200Z,11.06
2019-05-10T07:50:49.617Z,11.01
2019-05-10T07:53:23.094Z,11.02
2019-05-10T07:55:59.975Z,11.02
2019-05-10T07:58:38.335Z,11.12
2019-05-10T08:01:09.104Z,11.27
2019-05-10T08:03:48.038Z,11.41
2019-05-10T08:06:19.473Z,11.48
2019-05-10T08:08:55.288Z,11.57
2019-05-10T08:11:29.402Z,11.74
2019-05-10T08:14:06.132Z,11.89
2019-05-10T08:16:39.373Z,12.16
2019-05-10T08:19:13.713Z,12.48
2019-05-10T08:21:48.843Z,12.71
2019-05-10T08:24:23.817Z,12.81
2019-05-10T08:27:07.969Z,12.91
2019-05-10T08:29:33.773Z,12.91
2019-05-10T08:32:07.832Z,12.90
2019-05-10T08:34:51.807Z,12.90
2019-05-10T08:37:19.464Z,13.10
2019-05-10T08:39:55.775Z,13.26
2019-05-10T08:42:40.171Z,13.38
2019-05-10T08:45:05.494Z,13.55
2019-05-10T08:47:36.208Z,13.66
2019-05-10T08:50:26.363Z,13.79
2019-05-10T08:52:46.468Z,14.54
2019-05-10T08:55:19.859Z,15.10
2019-05-10T08:57:53.962Z,15.93
2019-05-10T09:00:41.630Z,16.55
2019-05-10T09:03:09.437Z,17.66
2019-05-10T09:05:40.000Z,18.31
2019-05-10T09:08:20.228Z,18.83
2019-05-10T09:10:52.753Z,19.08
2019-05-10T09:13:28.715Z,19.24
2019-05-10T09:16:02.528Z,19.11
2019-05-10T09:18:38.097Z,19.24
2019-05-10T09:21:14.239Z,19.91
2019-05-10T09:23:52.743Z,20.08
2019-05-10T09:26:24.374Z,20.31
2019-05-10T09:28:58.607Z,20.40
2019-05-10T09:31:32.776Z,21.12
2019-05-10T09:34:06.684Z,21.26
2019-05-10T09:36:44.835Z,20.92
2019-05-10T09:39:21.365Z,20.48
2019-05-10T09:41:52.763Z,19.89
2019-05-10T09:44:27.118Z,19.50
2019-05-10T09:47:01.958Z,19.44
2019-05-10T09:49:37.004Z,19.32
2019-05-10T09:52:12.833Z,19.03
2019-05-10T09:54:49.241Z,18.86
2019-05-10T09:57:22.698Z,18.93
2019-05-10T09:59:57.294Z,18.88
2019-05-10T10:02:33.896Z,18.72
2019-05-10T10:05:07.790Z,18.58
2019-05-10T10:07:41.802Z,18.51
2019-05-10T10:10:20.736Z,18.71
2019-05-10T10:12:49.735Z,19.00
2019-05-10T10:15:29.793Z,19.59
2019-05-10T10:17:59.517Z,19.54
2019-05-10T10:20:35.963Z,19.38
2019-05-10T10:23:10.157Z,19.30
2019-05-10T10:25:44.189Z,19.67
2019-05-10T10:28:19.961Z,20.11
2019-05-10T10:31:03.019Z,20.75
2019-05-10T10:33:29.567Z,21.61
2019-05-10T10:36:07.649Z,22.09
2019-05-10T10:38:45.174Z,22.60
2019-05-10T10:41:19.157Z,22.48
2019-05-10T10:43:50.368Z,22.53
2019-05-10T10:46:23.476Z,23.01
2019-05-10T10:48:57.546Z,22.78
2019-05-10T10:51:34.073Z,22.16
2019-05-10T10:54:07.511Z,21.69
2019-05-10T10:56:41.827Z,21.45
2019-05-10T10:59:18.267Z,21.16
2019-05-10T11:02:23.259Z,21.14
2019-05-10T11:04:27.660Z,21.02
2019-05-10T11:07:10.484Z,21.01
2019-05-10T11:09:37.504Z,20.73
2019-05-10T11:12:14.597Z,20.45
2019-05-10T11:14:47.493Z,20.39
2019-05-10T11:17:21.708Z,20.40
2019-05-10T11:19:55.916Z,20.39
2019-05-10T11:22:31.762Z,20.42
2019-05-10T11:25:09.674Z,20.21
2019-05-10T11:27:42.579Z,19.95
2019-05-10T11:30:17.099Z,19.69
2019-05-10T11:32:51.126Z,19.28
2019-05-10T11:35:28.482Z,18.74
2019-05-10T11:38:01.158Z,18.62
2019-05-10T11:40:36.810Z,18.54
2019-05-10T11:43:11.061Z,18.49
2019-05-10T11:45:45.006Z,18.46
2019-05-10T11:48:21.461Z,18.49
2019-05-10T11:50:54.768Z,18.53
2019-05-10T11:53:31.484Z,18.52
2019-05-10T11:56:07.916Z,18.55
2019-05-10T11:58:46.005Z,18.56
2019-05-10T12:01:19.273Z,18.54
2019-05-10T12:03:52.346Z,18.50
2019-05-10T12:06:26.479Z,18.32
2019-05-10T12:09:03.869Z,18.29
2019-05-10T12:14:13.802Z,18.35
2019-05-10T12:16:48.251Z,18.48
2019-05-10T12:19:22.191Z,18.59
2019-05-10T12:21:56.508Z,18.61
2019-05-10T12:24:46.271Z,18.73
2019-05-10T12:26:49.237Z,18.29
2019-05-10T12:27:17.315Z,18.88
2019-05-10T12:29:46.685Z,19.08
2019-05-10T12:32:21.131Z,19.06
2019-05-10T12:34:56.463Z,18.83
2019-05-10T12:37:30.860Z,18.70
2019-05-10T12:40:11.870Z,18.60
2019-05-10T12:42:46.711Z,18.61
2019-05-10T12:45:22.920Z,18.59
2019-05-10T12:47:55.249Z,18.64
2019-05-10T12:50:28.660Z,18.73
2019-05-10T12:53:13.367Z,18.71
2019-05-10T12:55:38.706Z,18.62
2019-05-10T12:58:12.628Z,18.58
2019-05-10T13:00:52.216Z,18.68
2019-05-10T13:03:31.607Z,18.74
2019-05-10T13:05:59.720Z,18.79
2019-05-10T13:08:33.713Z,18.82
2019-05-10T13:11:07.710Z,18.97
2019-05-10T13:13:40.932Z,19.11
2019-05-10T13:16:14.899Z,19.21
2019-05-10T13:18:51.807Z,19.29
2019-05-10T13:21:23.178Z,19.41
2019-05-10T13:23:57.146Z,19.33
2019-05-10T13:26:31.214Z,19.29
2019-05-10T13:29:07.921Z,19.39
2019-05-10T13:31:42.638Z,19.46
2019-05-10T13:34:16.278Z,19.26
2019-05-10T13:36:49.848Z,19.16
2019-05-10T13:39:25.362Z,19.33
2019-05-10T13:42:03.491Z,19.44
2019-05-10T13:44:37.062Z,19.52
2019-05-10T13:47:11.343Z,19.60
2019-05-10T13:49:48.717Z,19.70
2019-05-10T13:52:21.022Z,19.74
2019-05-10T13:54:54.244Z,19.67
2019-05-10T13:57:28.558Z,19.61
2019-05-10T14:00:02.648Z,19.50
2019-05-10T14:02:36.976Z,19.35
2019-05-10T14:05:17.346Z,19.08
2019-05-10T14:07:52.243Z,19.00
2019-05-10T14:10:25.401Z,18.84
2019-05-10T14:13:02.560Z,18.70
2019-05-10T14:15:35.444Z,18.44
2019-05-10T14:18:09.538Z,18.25
2019-05-10T14:20:42.701Z,18.10
2019-05-10T14:23:17.900Z,17.83
2019-05-10T14:25:52.223Z,17.52
2019-05-10T14:28:25.470Z,17.31
2019-05-10T14:30:59.544Z,17.06
2019-05-10T14:33:33.384Z,16.82
2019-05-10T14:36:07.427Z,16.64
2019-05-10T14:38:41.418Z,16.48
2019-05-10T14:41:14.522Z,16.31
2019-05-10T14:43:48.452Z,16.20
2019-05-10T14:46:22.427Z,16.12
2019-05-10T14:48:56.477Z,16.13
2019-05-10T14:51:44.144Z,16.18
2019-05-10T14:54:08.664Z,16.31
2019-05-10T14:56:40.722Z,16.36
2019-05-10T14:59:17.116Z,16.33
2019-05-10T15:01:51.244Z,16.30
2019-05-10T15:07:00.257Z,16.21
2019-05-10T15:09:33.628Z,16.17
2019-05-10T15:12:10.187Z,16.20
2019-05-10T15:14:43.739Z,16.25
2019-05-10T15:17:19.838Z,16.26
2019-05-10T15:19:57.380Z,16.28
2019-05-10T15:22:27.837Z,16.28
2019-05-10T15:25:01.152Z,16.25
2019-05-10T15:27:35.041Z,16.20
2019-05-10T15:30:09.657Z,16.11
2019-05-10T15:32:43.844Z,16.08
2019-05-10T15:35:17.044Z,15.98
2019-05-10T15:37:52.028Z,15.97
2019-05-10T15:40:26.063Z,15.90
2019-05-10T15:43:03.050Z,15.85
2019-05-10T15:45:36.083Z,15.81
2019-05-10T15:48:10.244Z,15.76
2019-05-10T15:50:44.439Z,15.82
2019-05-10T15:53:19.542Z,15.74
2019-05-10T15:55:59.008Z,15.67
2019-05-10T15:58:30.583Z,15.65
2019-05-10T16:01:07.458Z,15.57
2019-05-10T16:03:41.363Z,15.44
2019-05-10T16:06:15.397Z,15.30
2019-05-10T16:08:48.579Z,15.20
2019-05-10T16:11:22.890Z,15.05
2019-05-10T16:14:00.090Z,15.02
2019-05-10T16:16:36.974Z,15.06
2019-05-10T16:19:12.963Z,15.05
2019-05-10T16:21:46.564Z,15.00
2019-05-10T16:24:26.319Z,14.92
2019-05-10T16:27:00.213Z,14.91
2019-05-10T16:29:33.693Z,14.89
2019-05-10T16:32:08.135Z,14.87
2019-05-10T16:34:43.307Z,14.84
2019-05-10T16:37:17.863Z,14.84
2019-05-10T16:39:52.197Z,14.79
2019-05-10T16:42:27.821Z,14.72
2019-05-10T16:45:02.805Z,14.68
2019-05-10T16:47:36.859Z,14.67
2019-05-10T16:50:10.504Z,14.64
2019-05-10T16:52:45.193Z,14.62
2019-05-10T16:55:19.437Z,14.63
2019-05-10T16:57:53.412Z,14.58
2019-05-10T17:00:27.927Z,14.54
2019-05-10T17:03:02.146Z,14.49
2019-05-10T17:05:36.362Z,14.46
2019-05-10T17:08:11.327Z,14.46
2019-05-10T17:10:46.607Z,14.45
2019-05-10T17:13:21.138Z,14.44
2019-05-10T17:15:56.087Z,14.39
2019-05-10T17:18:31.097Z,14.35
2019-05-10T17:21:05.844Z,14.31
2019-05-10T17:23:44.877Z,14.30
2019-05-10T17:26:16.879Z,14.22
2019-05-10T17:28:52.478Z,14.18
2019-05-10T17:31:30.299Z,14.14
2019-05-10T17:34:05.342Z,14.09
2019-05-10T17:36:40.624Z,14.02
2019-05-10T17:39:15.246Z,13.90
2019-05-10T17:41:49.614Z,13.79
2019-05-10T17:44:24.901Z,13.75
2019-05-10T17:46:59.669Z,13.69
2019-05-10T17:49:34.247Z,13.65
2019-05-10T17:52:08.585Z,13.62
2019-05-10T17:54:43.303Z,13.60
2019-05-10T17:57:18.506Z,13.50
2019-05-10T17:59:54.644Z,13.48
2019-05-10T18:02:29.558Z,13.36
2019-05-10T18:05:09.172Z,13.31
2019-05-10T18:07:44.242Z,13.26
2019-05-10T18:10:19.448Z,13.28
2019-05-10T18:13:01.043Z,13.30
2019-05-10T18:15:32.853Z,13.29
2019-05-10T18:18:08.103Z,13.32
2019-05-10T18:20:44.643Z,13.33
2019-05-10T18:23:21.177Z,13.37
2019-05-10T18:25:58.440Z,13.42
2019-05-10T18:28:30.619Z,13.46
2019-05-10T18:31:04.788Z,13.49
2019-05-10T18:33:38.761Z,13.53
2019-05-10T18:36:13.112Z,13.55
2019-05-10T18:38:48.344Z,13.51
2019-05-10T18:41:22.505Z,13.49
2019-05-10T18:43:56.528Z,13.49
2019-05-10T18:46:30.524Z,13.43
2019-05-10T18:49:04.851Z,13.30
2019-05-10T18:51:39.118Z,13.19
2019-05-10T18:54:13.167Z,13.02
2019-05-10T18:56:47.043Z,12.87
2019-05-10T18:59:20.961Z,12.86
2019-05-10T19:01:54.809Z,12.81
2019-05-10T19:04:28.761Z,12.69
2019-05-10T19:07:09.811Z,12.58
2019-05-10T19:09:41.567Z,12.53
2019-05-10T19:12:18.854Z,12.49
2019-05-10T19:14:52.220Z,12.50
2019-05-10T19:17:47.263Z,12.46
2019-05-10T19:20:21.523Z,12.46
2019-05-10T19:22:54.763Z,12.46
2019-05-10T19:25:28.691Z,12.49
2019-05-10T19:28:02.765Z,12.47
2019-05-10T19:30:36.196Z,12.36
2019-05-10T19:33:10.353Z,12.33
2019-05-10T19:35:45.739Z,12.33
2019-05-10T19:38:20.221Z,12.21
2019-05-10T19:40:54.244Z,12.10
2019-05-10T19:43:28.693Z,12.03
2019-05-10T19:46:02.809Z,11.96
2019-05-10T19:48:37.410Z,11.92
2019-05-10T19:51:11.873Z,11.89
2019-05-10T19:53:45.933Z,11.87
2019-05-10T19:56:19.842Z,11.84
2019-05-10T19:58:53.859Z,11.87
2019-05-10T20:01:27.821Z,11.93
2019-05-10T20:04:01.985Z,11.97
2019-05-10T20:06:35.808Z,12.03
2019-05-10T20:09:09.734Z,12.07
2019-05-10T20:11:43.582Z,12.11
2019-05-10T20:14:17.522Z,12.13
2019-05-10T20:16:53.059Z,12.15
2019-05-10T20:19:26.927Z,12.12
2019-05-10T20:22:00.795Z,12.10
2019-05-10T20:24:34.696Z,12.06
2019-05-10T20:27:08.514Z,12.04
2019-05-10T20:29:42.428Z,12.01
2019-05-10T20:32:16.324Z,12.00
2019-05-10T20:34:50.411Z,12.04
2019-05-10T20:37:25.374Z,12.03
2019-05-10T20:39:59.301Z,11.99
2019-05-10T20:42:33.494Z,11.87
2019-05-10T20:45:08.372Z,11.82
2019-05-10T20:47:41.674Z,11.81
2019-05-10T20:50:17.382Z,11.80
2019-05-10T20:52:51.357Z,11.83
2019-05-10T20:55:25.471Z,11.85
2019-05-10T20:57:58.726Z,11.85
2019-05-10T21:00:32.582Z,11.87
2019-05-10T21:03:06.448Z,11.86
2019-05-10T21:05:40.568Z,11.86
2019-05-10T21:08:17.305Z,11.85
2019-05-10T21:10:56.276Z,11.86
2019-05-10T21:13:30.734Z,11.82
2019-05-10T21:16:04.958Z,11.82
2019-05-10T21:18:59.553Z,11.78
2019-05-10T21:21:34.694Z,11.76
2019-05-10T21:24:08.638Z,11.73
2019-05-10T21:26:42.656Z,11.70
2019-05-10T21:29:19.468Z,11.66
2019-05-10T21:31:55.603Z,11.64
2019-05-10T21:34:30.032Z,11.60
2019-05-10T21:37:04.203Z,11.58
2019-05-10T21:39:38.181Z,11.54
2019-05-10T21:42:12.252Z,11.46
2019-05-10T21:44:45.572Z,11.42
2019-05-10T21:47:19.520Z,11.39
2019-05-10T21:49:52.690Z,11.35
2019-05-10T21:52:27.037Z,11.26
2019-05-10T21:55:01.091Z,11.18
2019-05-10T21:57:34.284Z,11.11
2019-05-10T22:00:09.749Z,11.03
2019-05-10T22:02:44.133Z,10.94
2019-05-10T22:05:18.152Z,10.87
2019-05-10T22:07:51.465Z,10.86
2019-05-10T22:10:25.516Z,10.83
2019-05-10T22:12:58.648Z,10.76
2019-05-10T22:15:32.787Z,10.72
2019-05-10T22:18:06.672Z,10.68
2019-05-10T22:20:40.673Z,10.66
2019-05-10T22:23:13.892Z,10.65
2019-05-10T22:25:47.813Z,10.61
2019-05-10T22:28:22.008Z,10.59
2019-05-10T22:30:56.033Z,10.55
2019-05-10T22:33:29.503Z,10.55
2019-05-10T22:36:03.830Z,10.49
2019-05-10T22:38:38.175Z,10.42
2019-05-10T22:41:12.454Z,10.34
2019-05-10T22:43:46.624Z,10.27
2019-05-10T22:46:20.903Z,10.24
2019-05-10T22:48:55.326Z,10.19
2019-05-10T22:51:29.974Z,10.14
2019-05-10T22:54:03.979Z,10.11
2019-05-10T22:56:37.465Z,10.07
2019-05-10T22:59:11.334Z,10.06
2019-05-10T23:01:45.282Z,10.02
2019-05-10T23:04:19.161Z,10.00
2019-05-10T23:06:53.286Z,9.96
2019-05-10T23:09:26.332Z,9.92
2019-05-10T23:12:00.481Z,9.87
2019-05-10T23:14:34.406Z,9.83
2019-05-10T23:17:08.487Z,9.80
2019-05-10T23:19:42.666Z,9.76
2019-05-10T23:22:16.242Z,9.72
2019-05-10T23:24:50.300Z,9.70
2019-05-10T23:27:45.460Z,9.67
2019-05-10T23:30:34.503Z,9.65
2019-05-10T23:33:08.475Z,9.64
2019-05-10T23:35:42.629Z,9.63
2019-05-10T23:38:16.639Z,9.62
2019-05-10T23:40:49.898Z,9.59
2019-05-10T23:43:23.676Z,9.57
2019-05-10T23:46:08.371Z,9.53
2019-05-10T23:48:33.648Z,9.52
2019-05-10T23:51:07.771Z,9.49
2019-05-10T23:53:41.082Z,9.46
2019-05-10T23:56:15.087Z,9.44
2019-05-10T23:58:48.329Z,9.41
